Arbor, Missouri
Current Conditions -  °F | °C
As of 4:26 AM on Sunday 26 Oct 2014 (Local Time) from KCGI Reporting Station
Haze Haze  
Wind Chill: 12°   Ceiling: 700
Heat Index: 12°   Visibility: 0.75mi
Dew Point: 12°   Wind: 3mph
Humidity: 100%   Direction: 20°NNE
Pressure: 30"   Gusts: NA
Location:  37.1651°N, 89.623°W
Report Text: KCGI 260926Z AUTO 02003KT 3/4SM BR VV007 12/12 A3000 RMK AO2 TSNO
Loading
Personal Weather Stations






























Interactive Weather Map
Tropical Storm Tracking
New forecast layout! Learn more

10-Day Weather Forecast

Advertisements
Track Severe Weather on mobile